Time;durP1;ratioP1;P1;durP2;ratioP2;P2;SDS_P1;SDS_P2;PMS_P1;PMS_P2;Temp;Humidity;BMP_temperature;BMP_pressure;BME280_temperature;BME280_humidity;BME280_pressure;Samples;Min_cycle;Max_cycle;Signal;HPM_P1;HPM_P2
2022/01/27 00:07:30;;;;;;;29.80;13.82;;;6.30;99.90;;;;;;6269323;22;20015;-69
2022/01/27 00:10:28;;;;;;;37.03;14.23;;;6.30;99.90;;;;;;6268290;22;20274;-68
2022/01/27 00:12:55;;;;;;;31.05;13.15;;;6.30;99.90;;;;;;6268772;22;20347;-69
2022/01/27 00:15:28;;;;;;;30.67;14.07;;;6.20;99.90;;;;;;6267314;22;20365;-68
2022/01/27 00:17:59;;;;;;;31.95;12.43;;;6.30;99.90;;;;;;6268330;22;20049;-68
2022/01/27 00:20:24;;;;;;;25.58;9.77;;;6.20;99.90;;;;;;6242216;22;20049;-68
2022/01/27 00:22:50;;;;;;;26.50;10.88;;;6.20;99.90;;;;;;6268793;22;20024;-69
2022/01/27 00:25:16;;;;;;;29.73;11.80;;;6.20;99.90;;;;;;6241895;22;20341;-68
2022/01/27 00:27:41;;;;;;;33.85;13.43;;;6.10;99.90;;;;;;6243357;22;20454;-69
2022/01/27 00:30:09;;;;;;;37.67;12.45;;;6.10;99.90;;;;;;6241622;22;20059;-68
2022/01/27 00:32:35;;;;;;;33.10;14.63;;;6.10;99.90;;;;;;6268415;22;20031;-68
2022/01/27 00:35:02;;;;;;;29.90;13.35;;;6.00;99.90;;;;;;6239975;22;20012;-69
2022/01/27 00:37:28;;;;;;;35.85;12.80;;;6.10;99.90;;;;;;6266538;22;20019;-69
2022/01/27 00:39:57;;;;;;;30.95;13.23;;;6.00;99.90;;;;;;6269170;22;20024;-68
2022/01/27 00:42:24;;;;;;;25.50;10.63;;;6.00;99.90;;;;;;6241445;22;20375;-69
2022/01/27 00:44:50;;;;;;;32.88;14.45;;;6.00;99.90;;;;;;6268311;22;20019;-68
2022/01/27 00:47:16;;;;;;;34.10;14.23;;;6.00;99.90;;;;;;6241651;22;20024;-69
2022/01/27 00:49:42;;;;;;;34.30;14.18;;;6.00;99.90;;;;;;6267887;22;20022;-69
2022/01/27 00:52:12;;;;;;;28.25;13.60;;;5.90;99.90;;;;;;6242059;22;20433;-69
2022/01/27 00:54:37;;;;;;;31.85;14.57;;;6.00;99.90;;;;;;6269942;22;20185;-68
2022/01/27 00:59:47;;;;;;;33.90;12.27;;;5.90;99.90;;;;;;6270413;22;20031;-69
2022/01/27 01:02:21;;;;;;;35.88;16.58;;;5.90;99.90;;;;;;6269146;22;20534;-81
2022/01/27 01:04:56;;;;;;;29.38;13.90;;;5.90;99.90;;;;;;6246084;22;20019;-81
2022/01/27 01:07:22;;;;;;;32.35;15.60;;;5.90;99.90;;;;;;6246119;22;20046;-81
2022/01/27 01:14:49;;;;;;;33.78;17.60;;;5.80;99.90;;;;;;6246480;22;20022;-82
2022/01/27 01:17:32;;;;;;;30.63;15.73;;;5.80;99.90;;;;;;6246176;22;20011;-82
2022/01/27 01:31:09;;;;;;;31.38;14.93;;;5.70;99.90;;;;;;6224965;22;20046;-82
2022/01/27 01:33:38;;;;;;;31.02;15.40;;;5.70;99.90;;;;;;6272892;22;20019;-80
2022/01/27 01:36:14;;;;;;;40.97;18.58;;;5.70;99.90;;;;;;6249495;22;20016;-80
2022/01/27 01:38:45;;;;;;;34.03;17.70;;;5.70;99.90;;;;;;6248765;22;20031;-81
2022/01/27 01:41:11;;;;;;;28.67;12.88;;;5.70;99.90;;;;;;6248721;22;20023;-81
2022/01/27 01:43:37;;;;;;;29.92;12.75;;;5.60;99.90;;;;;;6250430;22;20023;-81
2022/01/27 01:46:02;;;;;;;40.85;17.33;;;5.60;99.90;;;;;;6244445;22;20023;-79
2022/01/27 01:48:28;;;;;;;39.67;17.58;;;5.60;99.90;;;;;;6244472;22;20012;-81
2022/01/27 01:50:55;;;;;;;26.88;12.65;;;5.60;99.90;;;;;;6245578;22;20031;-82
2022/01/27 01:53:20;;;;;;;24.88;11.23;;;5.60;99.90;;;;;;6246138;22;20019;-81
2022/01/27 01:55:46;;;;;;;33.13;15.65;;;5.60;99.90;;;;;;6272433;22;20016;-80
2022/01/27 01:58:12;;;;;;;39.42;17.63;;;5.60;99.90;;;;;;6245428;22;20034;-80
2022/01/27 02:00:38;;;;;;;34.58;16.73;;;5.60;99.90;;;;;;6274603;22;20450;-82
2022/01/27 02:03:03;;;;;;;39.60;17.35;;;5.60;99.90;;;;;;6251488;22;20050;-82
2022/01/27 02:05:34;;;;;;;35.75;16.95;;;5.70;99.90;;;;;;6277931;22;20054;-82
2022/01/27 02:19:17;;;;;;;30.25;12.00;;;5.80;99.90;;;;;;6250410;22;20483;-81
2022/01/27 02:21:45;;;;;;;37.33;18.70;;;5.80;99.90;;;;;;6251455;22;20024;-81
2022/01/27 02:24:11;;;;;;;33.83;17.88;;;5.90;99.90;;;;;;6248153;22;20052;-81
2022/01/27 02:26:36;;;;;;;37.33;18.13;;;5.90;99.90;;;;;;6249429;22;20347;-81
2022/01/27 02:29:02;;;;;;;40.67;17.33;;;5.90;99.90;;;;;;6247615;22;20045;-80
2022/01/27 02:31:28;;;;;;;32.30;14.25;;;6.00;99.90;;;;;;6250958;22;20020;-80
2022/01/27 02:33:57;;;;;;;32.08;13.40;;;6.00;99.90;;;;;;6252136;22;20353;-81
2022/01/27 02:36:23;;;;;;;29.20;15.35;;;6.00;99.90;;;;;;6251691;22;20020;-81
2022/01/27 02:38:49;;;;;;;33.38;16.02;;;6.10;99.90;;;;;;6250180;22;20108;-82
2022/01/27 02:41:16;;;;;;;37.30;17.67;;;6.10;99.90;;;;;;6248966;22;20498;-82
2022/01/27 02:43:42;;;;;;;39.65;19.42;;;6.10;99.90;;;;;;6247157;22;20114;-82
2022/01/27 02:46:20;;;;;;;49.63;18.67;;;6.10;99.90;;;;;;6249297;22;20022;-80
2022/01/27 02:48:45;;;;;;;22.42;11.88;;;6.10;99.90;;;;;;6246124;22;20016;-80
2022/01/27 02:51:11;;;;;;;21.20;11.10;;;6.20;99.90;;;;;;6246308;22;20012;-81
2022/01/27 02:53:37;;;;;;;41.75;19.15;;;6.20;99.90;;;;;;6225162;23;20028;-82
2022/01/27 02:56:03;;;;;;;33.08;14.57;;;6.20;99.90;;;;;;6254782;22;20019;-80
2022/01/27 02:58:28;;;;;;;35.38;16.52;;;6.20;99.90;;;;;;6247278;22;20019;-82
2022/01/27 03:00:54;;;;;;;39.10;16.50;;;6.20;99.90;;;;;;6244765;22;20039;-82
2022/01/27 03:03:19;;;;;;;42.22;17.27;;;6.20;99.90;;;;;;6277654;22;20038;-80
2022/01/27 03:05:45;;;;;;;37.13;15.65;;;6.20;99.90;;;;;;6251341;22;20414;-80
2022/01/27 03:08:11;;;;;;;28.35;13.50;;;6.20;99.90;;;;;;6250338;22;20316;-81
2022/01/27 03:10:42;;;;;;;40.05;17.25;;;6.30;99.90;;;;;;6256657;22;20023;-82
2022/01/27 03:13:09;;;;;;;35.58;15.48;;;6.30;99.90;;;;;;6258332;22;20024;-81
2022/01/27 03:15:34;;;;;;;42.78;15.70;;;6.30;99.90;;;;;;6284805;22;20012;-82
2022/01/27 03:18:00;;;;;;;26.20;10.23;;;6.20;99.90;;;;;;6254818;22;20006;-82
2022/01/27 03:20:33;;;;;;;40.33;15.65;;;6.30;99.90;;;;;;6257693;22;20103;-82
2022/01/27 03:23:02;;;;;;;29.23;12.60;;;6.30;99.90;;;;;;6249427;22;20464;-77
2022/01/27 03:25:28;;;;;;;35.78;17.05;;;6.30;99.90;;;;;;6249747;22;20071;-81
2022/01/27 03:27:54;;;;;;;29.15;11.35;;;6.30;99.90;;;;;;6254003;22;20024;-81
2022/01/27 03:30:19;;;;;;;20.17;7.45;;;6.30;99.90;;;;;;6251927;22;20030;-81
2022/01/27 03:32:45;;;;;;;25.80;10.45;;;6.30;99.90;;;;;;6252468;22;20024;-82
2022/01/27 03:35:12;;;;;;;36.72;14.30;;;6.30;99.90;;;;;;6256688;22;20020;-81
2022/01/27 03:37:38;;;;;;;20.10;10.00;;;6.30;99.90;;;;;;6255317;22;20040;-82
2022/01/27 03:40:06;;;;;;;32.78;13.73;;;6.30;99.90;;;;;;6255358;22;20026;-81
2022/01/27 03:42:32;;;;;;;30.27;12.60;;;6.30;99.90;;;;;;6257556;22;20379;-82
2022/01/27 03:44:58;;;;;;;38.92;16.33;;;6.30;99.90;;;;;;6252690;22;20054;-81
2022/01/27 03:47:24;;;;;;;27.83;11.63;;;6.40;99.90;;;;;;6279273;22;20015;-81
2022/01/27 03:49:49;;;;;;;32.22;14.00;;;6.40;99.90;;;;;;6276972;22;20466;-80
2022/01/27 03:52:16;;;;;;;28.58;12.45;;;6.40;99.90;;;;;;6248756;22;20172;-80
2022/01/27 03:54:41;;;;;;;38.17;13.32;;;6.40;99.90;;;;;;6277867;22;20028;-81
2022/01/27 03:57:07;;;;;;;21.58;9.18;;;6.40;99.90;;;;;;6282674;22;20043;-80
2022/01/27 03:59:32;;;;;;;22.05;9.82;;;6.50;99.90;;;;;;6254964;22;20436;-81
2022/01/27 04:01:58;;;;;;;23.23;9.82;;;6.50;99.90;;;;;;6247192;22;20470;-81
2022/01/27 04:04:25;;;;;;;31.00;12.23;;;6.50;99.90;;;;;;6252041;22;20020;-81
2022/01/27 04:06:52;;;;;;;33.38;13.18;;;6.50;99.90;;;;;;6250025;22;20026;-81
2022/01/27 04:09:18;;;;;;;34.90;15.23;;;6.50;99.90;;;;;;6249687;22;20020;-81
2022/01/27 04:11:45;;;;;;;30.92;12.27;;;6.50;99.90;;;;;;6245414;22;20015;-81
2022/01/27 04:14:10;;;;;;;24.80;10.57;;;6.60;99.90;;;;;;6251775;22;20076;-80
2022/01/27 04:16:37;;;;;;;26.55;10.25;;;6.60;99.90;;;;;;6252049;22;20079;-81
2022/01/27 04:19:06;;;;;;;30.25;14.10;;;6.60;99.90;;;;;;6253288;22;20031;-81
2022/01/27 04:21:32;;;;;;;33.85;12.90;;;6.60;99.90;;;;;;6252359;22;20016;-81
2022/01/27 04:23:57;;;;;;;27.77;10.52;;;6.60;99.90;;;;;;6251504;22;20019;-82
2022/01/27 04:26:32;;;;;;;29.45;12.15;;;6.60;99.90;;;;;;6247231;22;20047;-81
2022/01/27 04:28:57;;;;;;;32.53;12.38;;;6.60;99.90;;;;;;6253069;22;20016;-82
2022/01/27 04:31:25;;;;;;;36.15;13.30;;;6.60;99.90;;;;;;6249486;22;20099;-82
2022/01/27 04:33:52;;;;;;;37.50;12.02;;;6.60;99.90;;;;;;6253801;22;20019;-82
2022/01/27 04:36:29;;;;;;;34.83;13.10;;;6.60;99.90;;;;;;6254242;22;20031;-81
2022/01/27 04:41:40;;;;;;;38.08;14.38;;;6.60;99.90;;;;;;6249114;22;20413;-82
2022/01/27 04:44:21;;;;;;;33.97;13.27;;;6.60;99.90;;;;;;6254845;22;20026;-80
2022/01/27 04:49:13;;;;;;;42.67;14.68;;;6.60;99.90;;;;;;6246915;22;20086;-81
2022/01/27 04:51:42;;;;;;;26.67;10.93;;;6.60;99.90;;;;;;6253771;22;20019;-82
2022/01/27 04:54:21;;;;;;;29.48;11.48;;;6.70;99.90;;;;;;6248226;22;20348;-82
2022/01/27 04:56:46;;;;;;;31.65;11.00;;;6.70;99.90;;;;;;6253140;22;20043;-80
2022/01/27 04:59:23;;;;;;;28.88;10.48;;;6.70;99.90;;;;;;6255351;22;20356;-79
2022/01/27 05:01:58;;;;;;;30.27;10.43;;;6.70;99.90;;;;;;6255945;22;20479;-81
2022/01/27 05:04:29;;;;;;;35.50;12.23;;;6.70;99.90;;;;;;6254287;22;20015;-81
2022/01/27 05:06:55;;;;;;;33.17;12.38;;;6.70;99.90;;;;;;6245299;23;20064;-82
2022/01/27 05:09:22;;;;;;;25.27;9.13;;;6.70;99.90;;;;;;6244491;22;20038;-81
2022/01/27 05:14:20;;;;;;;35.40;12.20;;;6.80;99.90;;;;;;6244052;22;20391;-81
2022/01/27 05:16:46;;;;;;;25.52;9.80;;;6.80;99.90;;;;;;6240896;23;20307;-82
2022/01/27 05:19:11;;;;;;;36.65;12.75;;;6.80;99.90;;;;;;6242953;22;20156;-82
2022/01/27 05:21:37;;;;;;;31.00;11.10;;;6.80;99.90;;;;;;6252775;23;20023;-81
2022/01/27 05:24:04;;;;;;;25.38;9.85;;;6.90;99.90;;;;;;6249793;22;20020;-80
2022/01/27 05:26:30;;;;;;;33.92;10.90;;;6.90;99.90;;;;;;6245155;23;20518;-82
2022/01/27 05:28:55;;;;;;;29.23;10.60;;;6.90;99.90;;;;;;6244963;23;20020;-82
2022/01/27 05:31:21;;;;;;;31.63;11.52;;;6.90;99.90;;;;;;6242496;22;20066;-82
2022/01/27 05:33:47;;;;;;;22.67;8.75;;;6.90;99.90;;;;;;6217043;23;20020;-82
2022/01/27 05:36:12;;;;;;;28.25;10.50;;;6.90;99.90;;;;;;6242769;22;20040;-81
2022/01/27 05:38:38;;;;;;;35.03;12.73;;;6.90;99.90;;;;;;6238583;23;20357;-83
2022/01/27 05:41:05;;;;;;;32.75;12.70;;;6.90;99.90;;;;;;6244475;22;20063;-81
2022/01/27 05:43:32;;;;;;;34.53;10.80;;;6.80;99.90;;;;;;6244884;23;20031;-80
2022/01/27 05:45:58;;;;;;;38.38;14.25;;;6.80;99.90;;;;;;6248316;23;20030;-80
2022/01/27 05:48:24;;;;;;;40.70;12.13;;;6.80;99.90;;;;;;6246044;22;20058;-81
2022/01/27 05:50:50;;;;;;;39.67;13.68;;;6.70;99.90;;;;;;6238499;23;20367;-81
2022/01/27 05:53:16;;;;;;;33.08;10.50;;;6.70;99.90;;;;;;6234750;22;20032;-80
2022/01/27 05:55:41;;;;;;;36.60;12.40;;;6.70;99.90;;;;;;6237220;23;20012;-81
2022/01/27 05:58:07;;;;;;;39.85;16.95;;;6.70;99.90;;;;;;6237991;22;20035;-80
2022/01/27 06:00:36;;;;;;;40.78;12.15;;;6.70;99.90;;;;;;6238385;23;20023;-81
2022/01/27 06:03:02;;;;;;;33.50;12.70;;;6.70;99.90;;;;;;6237406;22;20012;-80
2022/01/27 06:05:28;;;;;;;36.08;11.82;;;6.70;99.90;;;;;;6238634;23;20391;-76
2022/01/27 06:07:53;;;;;;;37.95;13.38;;;6.70;99.90;;;;;;6237782;23;20016;-76
2022/01/27 06:10:20;;;;;;;38.00;10.40;;;6.70;99.90;;;;;;6237303;22;20027;-75
2022/01/27 06:12:56;;;;;;;34.70;10.68;;;6.70;99.90;;;;;;6239612;22;20099;-75
2022/01/27 06:15:26;;;;;;;30.38;11.85;;;6.80;99.90;;;;;;6238474;22;20028;-75
2022/01/27 06:17:52;;;;;;;41.00;13.45;;;6.80;99.90;;;;;;6237367;23;20126;-74
2022/01/27 06:20:18;;;;;;;35.50;12.07;;;6.80;99.90;;;;;;6236747;22;20051;-73
2022/01/27 06:22:44;;;;;;;29.42;10.38;;;6.80;99.90;;;;;;6237485;23;20456;-73
2022/01/27 06:25:12;;;;;;;33.50;12.48;;;6.80;99.90;;;;;;6235713;22;20159;-74
2022/01/27 06:27:38;;;;;;;41.85;14.27;;;6.80;99.90;;;;;;6235952;23;20020;-73
2022/01/27 06:30:08;;;;;;;47.17;12.70;;;6.80;99.90;;;;;;6237457;22;20070;-73
2022/01/27 06:32:34;;;;;;;28.83;9.30;;;6.80;99.90;;;;;;6236991;23;20514;-75
2022/01/27 06:35:03;;;;;;;28.55;9.57;;;6.80;99.90;;;;;;6237457;23;20028;-73
2022/01/27 06:37:30;;;;;;;44.08;14.27;;;6.80;99.90;;;;;;6213535;23;20038;-79
2022/01/27 06:39:56;;;;;;;16.48;5.70;;;6.80;99.90;;;;;;6237924;23;20016;-80
2022/01/27 06:42:22;;;;;;;28.17;8.77;;;6.80;99.90;;;;;;6239136;22;20173;-78
2022/01/27 06:44:47;;;;;;;42.67;13.65;;;6.80;99.90;;;;;;6239081;23;20155;-79
2022/01/27 06:47:13;;;;;;;32.22;11.45;;;6.80;99.90;;;;;;6238347;22;20031;-77
2022/01/27 06:49:39;;;;;;;32.00;10.75;;;6.80;99.90;;;;;;6238024;23;20375;-78
2022/01/27 06:52:06;;;;;;;31.65;10.88;;;6.80;99.90;;;;;;6238536;22;20348;-77
2022/01/27 06:54:31;;;;;;;38.45;13.57;;;6.80;99.90;;;;;;6237735;23;20498;-79
2022/01/27 06:56:57;;;;;;;28.58;10.20;;;6.80;99.90;;;;;;6238034;23;20012;-79
2022/01/27 06:59:23;;;;;;;27.17;7.97;;;6.80;99.90;;;;;;6239458;22;20083;-80
2022/01/27 07:01:48;;;;;;;30.88;9.13;;;6.80;99.90;;;;;;6238828;23;20039;-78
2022/01/27 07:04:14;;;;;;;24.40;9.38;;;6.80;99.90;;;;;;6237986;22;20520;-80
2022/01/27 07:06:39;;;;;;;34.13;9.90;;;6.90;99.90;;;;;;6238145;23;20390;-79
2022/01/27 07:09:05;;;;;;;43.00;12.25;;;6.90;99.90;;;;;;6237809;22;20027;-79
2022/01/27 07:11:31;;;;;;;41.08;11.55;;;6.90;99.90;;;;;;6237537;23;20028;-78
2022/01/27 07:13:59;;;;;;;29.42;10.88;;;6.90;99.90;;;;;;6238502;23;20337;-79
2022/01/27 07:16:33;;;;;;;37.80;10.02;;;7.00;99.90;;;;;;6233635;22;20103;-80
2022/01/27 07:19:09;;;;;;;36.97;11.35;;;7.00;99.90;;;;;;6165479;23;20022;-79
2022/01/27 07:21:35;;;;;;;35.45;10.70;;;7.10;99.90;;;;;;6238806;23;20510;-79
2022/01/27 07:24:02;;;;;;;29.17;9.40;;;7.10;99.90;;;;;;6239578;22;20020;-79
2022/01/27 07:26:27;;;;;;;28.23;8.30;;;7.10;99.90;;;;;;6238074;23;20040;-80
2022/01/27 07:28:54;;;;;;;31.85;9.10;;;7.10;99.90;;;;;;6238579;23;20016;-80
2022/01/27 07:31:20;;;;;;;26.48;9.63;;;7.20;99.90;;;;;;6235840;22;20020;-80
2022/01/27 07:33:48;;;;;;;37.95;9.50;;;7.20;99.90;;;;;;6238520;23;20020;-80
2022/01/27 07:36:17;;;;;;;34.28;10.07;;;7.20;99.90;;;;;;6238092;22;20013;-80
2022/01/27 07:38:44;;;;;;;29.88;8.48;;;7.20;99.90;;;;;;6237984;23;20048;-80
2022/01/27 07:41:12;;;;;;;19.42;5.97;;;7.20;99.90;;;;;;6238633;22;20058;-79
2022/01/27 07:43:40;;;;;;;32.42;9.27;;;7.30;99.90;;;;;;6238233;23;20020;-80
2022/01/27 07:46:06;;;;;;;29.83;8.00;;;7.30;99.90;;;;;;6236705;22;20051;-79
2022/01/27 07:48:32;;;;;;;24.67;7.70;;;7.30;99.90;;;;;;6237896;23;20039;-81
2022/01/27 07:50:58;;;;;;;26.10;8.30;;;7.30;99.90;;;;;;6237652;23;20030;-81
2022/01/27 07:53:24;;;;;;;22.08;7.40;;;7.30;99.90;;;;;;6237273;22;20012;-80
2022/01/27 07:55:49;;;;;;;27.17;7.25;;;7.30;99.90;;;;;;6237992;23;20052;-81
2022/01/27 07:58:15;;;;;;;30.35;7.32;;;7.40;99.90;;;;;;6239264;22;20456;-80
2022/01/27 08:00:40;;;;;;;15.07;4.45;;;7.40;99.90;;;;;;6238869;23;20008;-81
2022/01/27 08:03:06;;;;;;;17.17;6.55;;;7.40;99.90;;;;;;6236318;22;20690;-80
2022/01/27 08:05:31;;;;;;;23.00;7.15;;;7.40;99.90;;;;;;6238066;23;20028;-80
2022/01/27 08:07:58;;;;;;;24.80;6.88;;;7.50;99.90;;;;;;6237784;23;20020;-81
2022/01/27 08:10:24;;;;;;;25.25;8.02;;;7.50;99.90;;;;;;6237215;22;20016;-80
2022/01/27 08:12:50;;;;;;;24.33;7.00;;;7.50;99.90;;;;;;6237386;23;20131;-81
2022/01/27 08:15:19;;;;;;;23.17;5.90;;;7.50;99.90;;;;;;6218780;23;20480;-81
2022/01/27 08:17:48;;;;;;;24.65;6.47;;;7.50;99.90;;;;;;6215397;23;20024;-81
2022/01/27 08:20:15;;;;;;;22.75;6.65;;;7.60;99.90;;;;;;6239748;22;20031;-81
2022/01/27 08:22:45;;;;;;;25.58;7.10;;;7.60;99.90;;;;;;6241532;23;20491;-81
2022/01/27 08:25:10;;;;;;;27.52;8.02;;;7.60;99.90;;;;;;6240167;22;20034;-80
2022/01/27 08:27:38;;;;;;;21.35;6.30;;;7.70;99.90;;;;;;6243253;22;20009;-80
2022/01/27 08:30:05;;;;;;;32.85;6.90;;;7.60;99.90;;;;;;6242362;22;20402;-81
2022/01/27 08:32:50;;;;;;;23.60;6.00;;;7.60;99.90;;;;;;6242681;22;20012;-81
2022/01/27 08:35:18;;;;;;;18.02;5.65;;;7.70;99.90;;;;;;6237744;22;20345;-82
2022/01/27 08:37:44;;;;;;;10.02;4.13;;;7.70;99.90;;;;;;6238279;23;20013;-82
2022/01/27 08:40:14;;;;;;;20.95;5.45;;;7.80;99.90;;;;;;6236123;22;20027;-82
2022/01/27 08:42:40;;;;;;;23.48;4.40;;;7.80;99.90;;;;;;6234619;23;20024;-82
2022/01/27 08:45:11;;;;;;;20.35;5.82;;;7.90;99.90;;;;;;6235451;22;20040;-80
2022/01/27 08:47:38;;;;;;;25.25;7.82;;;7.90;99.90;;;;;;6237491;23;20016;-80
2022/01/27 08:50:06;;;;;;;18.30;5.57;;;7.90;99.90;;;;;;6239630;22;20440;-79
2022/01/27 08:52:32;;;;;;;20.33;5.82;;;8.00;99.90;;;;;;6241977;23;20051;-81
2022/01/27 08:54:58;;;;;;;19.35;5.13;;;7.90;99.90;;;;;;6248313;23;20024;-81
2022/01/27 08:57:24;;;;;;;24.20;5.57;;;7.90;99.90;;;;;;6243248;22;20020;-82
2022/01/27 08:59:51;;;;;;;15.30;3.88;;;7.90;99.90;;;;;;6236548;23;20199;-82
2022/01/27 09:02:17;;;;;;;30.50;5.95;;;7.90;99.90;;;;;;6237049;22;20393;-81
2022/01/27 09:04:43;;;;;;;23.40;6.20;;;7.90;99.90;;;;;;6247895;22;20383;-81
2022/01/27 09:07:08;;;;;;;29.80;6.28;;;7.80;99.90;;;;;;6243000;22;20070;-81
2022/01/27 09:09:34;;;;;;;23.30;5.30;;;7.80;99.90;;;;;;6237802;22;20020;-83
2022/01/27 09:12:00;;;;;;;25.63;6.18;;;7.90;99.90;;;;;;6236284;23;20039;-83
2022/01/27 09:14:29;;;;;;;21.63;5.38;;;7.80;99.90;;;;;;6235825;23;20502;-82
2022/01/27 09:16:55;;;;;;;19.27;5.55;;;7.80;99.90;;;;;;6234375;23;20028;-82
2022/01/27 09:19:21;;;;;;;31.58;7.35;;;7.80;99.90;;;;;;6235446;22;20105;-82
2022/01/27 09:21:47;;;;;;;27.20;5.72;;;7.80;99.90;;;;;;6235000;23;20388;-83
2022/01/27 09:24:18;;;;;;;27.27;5.93;;;7.80;99.90;;;;;;6228677;22;20024;-82
2022/01/27 09:29:15;;;;;;;23.92;4.97;;;7.90;99.90;;;;;;6235879;22;20032;-81
2022/01/27 09:31:43;;;;;;;27.40;7.15;;;7.90;99.90;;;;;;6234483;22;20394;-81
2022/01/27 09:34:09;;;;;;;25.95;5.00;;;7.90;99.90;;;;;;6236037;22;20024;-80
2022/01/27 09:36:34;;;;;;;32.38;6.82;;;8.00;99.90;;;;;;6235986;22;20459;-81
2022/01/27 09:39:00;;;;;;;25.40;5.43;;;8.00;99.90;;;;;;6234391;23;20024;-81
2022/01/27 09:41:27;;;;;;;28.88;6.20;;;8.10;99.90;;;;;;6233476;23;20050;-80
2022/01/27 09:43:56;;;;;;;28.77;6.65;;;8.10;99.90;;;;;;6231775;23;20091;-81
2022/01/27 09:46:24;;;;;;;12.30;4.35;;;8.20;99.90;;;;;;6234388;22;20015;-81
2022/01/27 09:48:54;;;;;;;11.63;3.00;;;8.20;99.90;;;;;;6221631;22;20016;-81
2022/01/27 09:51:25;;;;;;;12.00;3.85;;;8.30;99.90;;;;;;6223881;22;20107;-81
2022/01/27 09:53:54;;;;;;;18.27;5.18;;;8.30;99.90;;;;;;6236672;22;20527;-82
2022/01/27 09:56:20;;;;;;;16.73;4.57;;;8.40;99.90;;;;;;6236683;22;20027;-81
2022/01/27 09:58:46;;;;;;;15.95;5.00;;;8.50;99.90;;;;;;6235388;23;20091;-81
2022/01/27 10:01:12;;;;;;;17.58;4.68;;;8.60;99.90;;;;;;6235129;22;20040;-80
2022/01/27 10:03:55;;;;;;;15.32;3.67;;;8.60;99.90;;;;;;6233730;23;20103;-80
2022/01/27 10:06:26;;;;;;;22.23;4.60;;;8.70;99.90;;;;;;6233341;22;20020;-83
2022/01/27 10:09:16;;;;;;;20.52;4.35;;;8.70;99.90;;;;;;6237796;22;20020;-82
2022/01/27 10:11:44;;;;;;;17.60;4.53;;;8.70;99.90;;;;;;6236787;22;20012;-80
2022/01/27 10:14:39;;;;;;;14.07;4.00;;;8.60;99.90;;;;;;6235779;22;20054;-80
2022/01/27 10:17:12;;;;;;;16.90;4.30;;;8.60;99.90;;;;;;6217341;22;20364;-82
2022/01/27 10:19:38;;;;;;;21.60;4.78;;;8.60;99.90;;;;;;6237130;22;20138;-81
2022/01/27 10:22:13;;;;;;;29.55;7.35;;;8.60;99.90;;;;;;6236040;22;20043;-81
2022/01/27 10:24:39;;;;;;;25.20;6.03;;;8.70;99.90;;;;;;6238232;22;20494;-82
2022/01/27 10:27:55;;;;;;;20.27;4.80;;;8.70;99.90;;;;;;6234994;22;20063;-83
2022/01/27 10:32:55;;;;;;;9.98;1.95;;;8.70;99.90;;;;;;6236525;23;20040;-81
2022/01/27 10:35:23;;;;;;;24.83;5.05;;;8.70;99.90;;;;;;6208722;22;20082;-82
2022/01/27 10:38:14;;;;;;;11.32;3.88;;;8.80;99.90;;;;;;6235696;23;20078;-83
2022/01/27 10:40:42;;;;;;;25.30;5.20;;;8.80;99.90;;;;;;6235035;23;20051;-81
2022/01/27 10:43:15;;;;;;;23.35;5.25;;;8.80;99.90;;;;;;6233854;22;20023;-80
2022/01/27 10:46:29;;;;;;;32.83;5.32;;;8.80;99.90;;;;;;6236102;23;20376;-81
2022/01/27 10:49:07;;;;;;;17.95;3.25;;;8.80;99.90;;;;;;6217213;23;20241;-86
2022/01/27 10:51:43;;;;;;;22.88;5.30;;;8.90;99.90;;;;;;6223926;23;20013;-89
2022/01/27 10:54:23;;;;;;;24.00;4.88;;;8.80;99.90;;;;;;6239326;22;20081;-85
2022/01/27 10:56:51;;;;;;;22.48;6.05;;;8.90;99.90;;;;;;6237514;23;20387;-86
2022/01/27 10:59:19;;;;;;;22.17;4.90;;;8.80;99.90;;;;;;6237085;22;20020;-87
2022/01/27 11:01:50;;;;;;;20.85;5.07;;;8.80;99.90;;;;;;6238443;23;20019;-87
2022/01/27 11:04:19;;;;;;;20.67;4.82;;;8.80;99.90;;;;;;6232650;22;20016;-89
2022/01/27 11:07:03;;;;;;;20.77;4.32;;;8.80;99.90;;;;;;6238264;22;20008;-89
2022/01/27 11:09:38;;;;;;;23.13;5.63;;;8.80;99.90;;;;;;6236749;23;20016;-86
2022/01/27 11:12:11;;;;;;;36.87;5.10;;;8.80;99.90;;;;;;6238519;22;20028;-87
2022/01/27 11:14:37;;;;;;;22.15;4.18;;;8.80;99.90;;;;;;6238530;23;20023;-88
2022/01/27 11:17:09;;;;;;;32.45;5.50;;;8.80;99.90;;;;;;6236089;22;20027;-87
2022/01/27 11:19:56;;;;;;;29.20;4.53;;;8.90;99.90;;;;;;6239264;23;20023;-87
2022/01/27 11:27:48;;;;;;;26.30;5.57;;;9.00;99.90;;;;;;6236434;23;20019;-87
2022/01/27 11:30:22;;;;;;;33.25;4.80;;;9.00;99.90;;;;;;6235973;22;20464;-88
2022/01/27 11:32:59;;;;;;;26.60;5.15;;;9.00;99.90;;;;;;6236455;23;20176;-84
2022/01/27 11:35:26;;;;;;;27.52;4.38;;;9.00;99.90;;;;;;6236832;22;20023;-85
2022/01/27 11:37:54;;;;;;;29.42;5.97;;;9.00;99.90;;;;;;6235977;23;20399;-86
2022/01/27 11:40:23;;;;;;;35.25;5.50;;;9.10;99.90;;;;;;6238494;22;20016;-86
2022/01/27 11:42:54;;;;;;;21.77;4.10;;;9.20;99.90;;;;;;6227911;22;20020;-86
2022/01/27 11:45:22;;;;;;;26.63;5.32;;;9.20;99.90;;;;;;6237116;22;20032;-87
2022/01/27 11:48:08;;;;;;;21.60;4.88;;;9.20;99.90;;;;;;6235136;23;20016;-87
2022/01/27 11:53:32;;;;;;;24.88;5.50;;;9.30;99.90;;;;;;6220028;22;20024;-81
2022/01/27 11:56:08;;;;;;;26.15;4.82;;;9.30;99.90;;;;;;6235277;23;20016;-81
2022/01/27 11:58:52;;;;;;;27.40;4.10;;;9.30;99.90;;;;;;6236304;23;20092;-80
2022/01/27 12:01:25;;;;;;;;;;;9.30;99.90;;;;;;6235945;22;20048;-81
2022/01/27 12:04:08;;;;;;;22.57;4.03;;;9.20;99.90;;;;;;6237153;23;19965;-79
2022/01/27 12:06:37;;;;;;;27.40;4.30;;;9.20;99.90;;;;;;6237426;22;20271;-80
2022/01/27 12:09:21;;;;;;;23.17;3.88;;;9.20;99.90;;;;;;6235353;22;20082;-80
2022/01/27 12:11:57;;;;;;;21.63;4.40;;;9.20;99.90;;;;;;6237522;23;20016;-81
2022/01/27 12:14:28;;;;;;;15.60;3.08;;;9.20;99.90;;;;;;6234947;22;20481;-81
2022/01/27 12:17:09;;;;;;;21.70;4.78;;;9.20;99.90;;;;;;6235465;23;20039;-80
2022/01/27 12:20:05;;;;;;;23.65;3.92;;;9.20;99.90;;;;;;6234888;23;20020;-81
2022/01/27 12:22:42;;;;;;;24.10;4.70;;;9.20;99.90;;;;;;6236624;23;20024;-81
2022/01/27 12:25:10;;;;;;;14.77;3.42;;;9.20;99.90;;;;;;6234574;22;20356;-80
2022/01/27 12:27:36;;;;;;;23.27;4.95;;;9.20;99.90;;;;;;6236394;23;20078;-82
2022/01/27 12:30:06;;;;;;;24.58;4.78;;;9.20;99.90;;;;;;6237883;22;20032;-79
2022/01/27 12:32:33;;;;;;;24.55;4.40;;;9.20;99.90;;;;;;6235331;23;20018;-81
2022/01/27 12:35:07;;;;;;;22.58;4.68;;;9.10;99.90;;;;;;6232829;23;20050;-81
2022/01/27 12:37:52;;;;;;;24.58;5.43;;;9.10;99.90;;;;;;6235263;23;20024;-81
2022/01/27 12:40:21;;;;;;;17.90;3.22;;;9.10;99.90;;;;;;6233745;22;20079;-80
2022/01/27 12:42:59;;;;;;;20.35;3.85;;;9.10;99.90;;;;;;6235498;23;20452;-82
2022/01/27 12:45:31;;;;;;;16.42;3.30;;;9.10;99.90;;;;;;6235743;23;20023;-79
2022/01/27 12:48:01;;;;;;;19.60;3.90;;;9.10;99.90;;;;;;6233071;23;20056;-81
2022/01/27 12:50:28;;;;;;;17.13;3.42;;;9.00;99.90;;;;;;6234440;23;20091;-81
2022/01/27 12:53:00;;;;;;;17.52;3.10;;;9.00;99.90;;;;;;6235559;23;20460;-82
2022/01/27 12:55:37;;;;;;;17.15;2.90;;;8.90;99.90;;;;;;6235886;23;20024;-82
2022/01/27 12:58:06;;;;;;;25.38;3.40;;;8.90;99.90;;;;;;6235062;22;20031;-82
2022/01/27 13:00:49;;;;;;;31.77;4.53;;;8.90;99.90;;;;;;6230878;23;20054;-83
2022/01/27 13:03:16;;;;;;;28.08;3.65;;;8.90;99.90;;;;;;6234325;22;20050;-82
2022/01/27 13:05:49;;;;;;;25.30;4.05;;;9.00;99.90;;;;;;6234624;23;20016;-82
2022/01/27 13:08:29;;;;;;;17.90;3.33;;;9.10;99.90;;;;;;6235406;22;20028;-82
2022/01/27 13:10:59;;;;;;;21.65;3.88;;;9.10;99.90;;;;;;6235189;23;20111;-82
2022/01/27 13:13:32;;;;;;;26.60;4.32;;;9.30;99.90;;;;;;6233828;22;20016;-82
2022/01/27 13:16:00;;;;;;;22.08;3.60;;;9.40;99.90;;;;;;6234275;23;20024;-82
2022/01/27 13:18:31;;;;;;;21.58;4.03;;;9.50;99.90;;;;;;6235148;23;20052;-82
2022/01/27 13:20:59;;;;;;;23.55;3.28;;;9.50;99.90;;;;;;6235412;23;20016;-82
2022/01/27 13:25:55;;;;;;;19.23;4.18;;;9.30;99.90;;;;;;6237041;23;20042;-82
2022/01/27 13:28:25;;;;;;;24.20;4.57;;;9.20;99.90;;;;;;6235395;22;20492;-82
2022/01/27 13:30:54;;;;;;;23.98;3.70;;;9.20;99.90;;;;;;6236319;23;20009;-83
2022/01/27 13:33:23;;;;;;;19.73;3.80;;;9.10;99.90;;;;;;6233778;22;20428;-82
2022/01/27 13:35:50;;;;;;;17.50;4.45;;;9.10;99.90;;;;;;6233624;23;20125;-84
2022/01/27 13:38:24;;;;;;;24.58;3.50;;;9.10;99.90;;;;;;6234896;22;20027;-82
2022/01/27 13:41:22;;;;;;;20.27;3.38;;;9.00;99.90;;;;;;6235354;23;20016;-82
2022/01/27 13:43:58;;;;;;;22.95;3.92;;;9.00;99.90;;;;;;6234070;23;20012;-83
2022/01/27 13:46:43;;;;;;;27.10;4.40;;;9.00;99.90;;;;;;6234960;22;20069;-82
2022/01/27 13:49:10;;;;;;;25.77;5.20;;;9.00;99.90;;;;;;6233488;22;20059;-82
2022/01/27 13:52:10;;;;;;;27.13;4.10;;;9.00;99.90;;;;;;6223537;22;20023;-82
2022/01/27 13:54:38;;;;;;;24.05;5.18;;;8.90;99.90;;;;;;6139894;23;20051;-81